sensor_id;sensor_type;location;lat;lon;timestamp;P1;durP1;ratioP1;P2;durP2;ratioP2
962;SDS011;469;48.770;9.176;2023-02-08T00:02:26;20.35;;;8.57;;
962;SDS011;469;48.770;9.176;2023-02-08T00:04:53;24.90;;;8.27;;
962;SDS011;469;48.770;9.176;2023-02-08T00:07:19;34.55;;;12.88;;
962;SDS011;469;48.770;9.176;2023-02-08T00:09:46;14.55;;;7.50;;
962;SDS011;469;48.770;9.176;2023-02-08T00:12:14;17.70;;;7.80;;
962;SDS011;469;48.770;9.176;2023-02-08T00:14:41;24.40;;;9.25;;
962;SDS011;469;48.770;9.176;2023-02-08T00:17:08;17.55;;;7.70;;
962;SDS011;469;48.770;9.176;2023-02-08T00:19:34;21.63;;;7.72;;
962;SDS011;469;48.770;9.176;2023-02-08T00:22:01;22.88;;;8.15;;
962;SDS011;469;48.770;9.176;2023-02-08T00:24:28;18.67;;;8.23;;
962;SDS011;469;48.770;9.176;2023-02-08T00:26:54;18.70;;;8.95;;
962;SDS011;469;48.770;9.176;2023-02-08T00:29:22;27.20;;;8.52;;
962;SDS011;469;48.770;9.176;2023-02-08T00:31:49;26.95;;;8.82;;
962;SDS011;469;48.770;9.176;2023-02-08T00:34:16;16.83;;;7.70;;
962;SDS011;469;48.770;9.176;2023-02-08T00:36:42;21.60;;;8.20;;
962;SDS011;469;48.770;9.176;2023-02-08T00:39:09;17.13;;;7.43;;
962;SDS011;469;48.770;9.176;2023-02-08T00:41:36;20.05;;;8.30;;
962;SDS011;469;48.770;9.176;2023-02-08T00:44:02;19.48;;;8.20;;
962;SDS011;469;48.770;9.176;2023-02-08T00:46:31;19.35;;;8.15;;
962;SDS011;469;48.770;9.176;2023-02-08T00:48:57;17.98;;;8.32;;
962;SDS011;469;48.770;9.176;2023-02-08T00:51:24;20.27;;;8.05;;
962;SDS011;469;48.770;9.176;2023-02-08T00:53:51;19.38;;;7.93;;
962;SDS011;469;48.770;9.176;2023-02-08T00:56:17;22.98;;;8.35;;
962;SDS011;469;48.770;9.176;2023-02-08T00:58:44;19.52;;;8.50;;
962;SDS011;469;48.770;9.176;2023-02-08T01:01:11;15.98;;;7.50;;
962;SDS011;469;48.770;9.176;2023-02-08T01:03:40;17.42;;;7.25;;
962;SDS011;469;48.770;9.176;2023-02-08T01:06:08;17.63;;;7.40;;
962;SDS011;469;48.770;9.176;2023-02-08T01:08:37;16.05;;;7.78;;
962;SDS011;469;48.770;9.176;2023-02-08T01:11:04;19.67;;;7.47;;
962;SDS011;469;48.770;9.176;2023-02-08T01:13:33;20.63;;;8.18;;
962;SDS011;469;48.770;9.176;2023-02-08T01:16:04;23.92;;;8.55;;
962;SDS011;469;48.770;9.176;2023-02-08T01:18:32;17.65;;;7.60;;
962;SDS011;469;48.770;9.176;2023-02-08T01:21:03;20.83;;;7.90;;
962;SDS011;469;48.770;9.176;2023-02-08T01:23:31;18.23;;;7.85;;
962;SDS011;469;48.770;9.176;2023-02-08T01:25:57;17.45;;;8.20;;
962;SDS011;469;48.770;9.176;2023-02-08T01:28:24;16.85;;;8.00;;
962;SDS011;469;48.770;9.176;2023-02-08T01:30:51;15.73;;;7.22;;
962;SDS011;469;48.770;9.176;2023-02-08T01:33:17;15.82;;;6.80;;
962;SDS011;469;48.770;9.176;2023-02-08T01:35:44;18.15;;;7.70;;
962;SDS011;469;48.770;9.176;2023-02-08T01:38:12;21.33;;;8.70;;
962;SDS011;469;48.770;9.176;2023-02-08T01:40:39;17.35;;;7.13;;
962;SDS011;469;48.770;9.176;2023-02-08T01:43:08;18.58;;;7.30;;
962;SDS011;469;48.770;9.176;2023-02-08T01:45:46;18.50;;;7.68;;
962;SDS011;469;48.770;9.176;2023-02-08T01:48:14;19.67;;;8.05;;
962;SDS011;469;48.770;9.176;2023-02-08T01:50:45;24.25;;;8.68;;
962;SDS011;469;48.770;9.176;2023-02-08T01:53:17;17.55;;;7.47;;
962;SDS011;469;48.770;9.176;2023-02-08T01:55:46;15.98;;;6.88;;
962;SDS011;469;48.770;9.176;2023-02-08T01:58:16;20.75;;;8.48;;
962;SDS011;469;48.770;9.176;2023-02-08T02:00:44;21.35;;;8.82;;
962;SDS011;469;48.770;9.176;2023-02-08T02:03:11;19.48;;;7.55;;
962;SDS011;469;48.770;9.176;2023-02-08T02:05:38;17.98;;;8.18;;
962;SDS011;469;48.770;9.176;2023-02-08T02:08:07;21.15;;;8.98;;
962;SDS011;469;48.770;9.176;2023-02-08T02:10:37;16.50;;;7.57;;
962;SDS011;469;48.770;9.176;2023-02-08T02:13:06;17.45;;;7.32;;
962;SDS011;469;48.770;9.176;2023-02-08T02:15:34;16.00;;;7.60;;
962;SDS011;469;48.770;9.176;2023-02-08T02:18:01;20.67;;;7.95;;
962;SDS011;469;48.770;9.176;2023-02-08T02:20:34;18.45;;;8.52;;
962;SDS011;469;48.770;9.176;2023-02-08T02:26:37;21.45;;;7.28;;
962;SDS011;469;48.770;9.176;2023-02-08T02:29:24;18.20;;;7.78;;
962;SDS011;469;48.770;9.176;2023-02-08T02:32:07;18.33;;;7.20;;
962;SDS011;469;48.770;9.176;2023-02-08T02:34:45;15.70;;;7.20;;
962;SDS011;469;48.770;9.176;2023-02-08T02:37:20;19.80;;;6.93;;
962;SDS011;469;48.770;9.176;2023-02-08T02:40:04;17.05;;;7.55;;
962;SDS011;469;48.770;9.176;2023-02-08T02:42:39;16.60;;;7.25;;
962;SDS011;469;48.770;9.176;2023-02-08T02:45:35;16.88;;;6.78;;
962;SDS011;469;48.770;9.176;2023-02-08T02:48:13;18.65;;;7.68;;
962;SDS011;469;48.770;9.176;2023-02-08T02:50:45;18.80;;;7.78;;
962;SDS011;469;48.770;9.176;2023-02-08T02:53:18;17.40;;;7.20;;
962;SDS011;469;48.770;9.176;2023-02-08T02:55:50;16.75;;;6.80;;
962;SDS011;469;48.770;9.176;2023-02-08T02:58:21;17.30;;;7.45;;
962;SDS011;469;48.770;9.176;2023-02-08T03:00:51;14.75;;;7.03;;
962;SDS011;469;48.770;9.176;2023-02-08T03:03:21;18.95;;;7.28;;
962;SDS011;469;48.770;9.176;2023-02-08T03:05:49;19.92;;;7.63;;
962;SDS011;469;48.770;9.176;2023-02-08T03:08:27;14.88;;;7.15;;
962;SDS011;469;48.770;9.176;2023-02-08T03:11:15;16.17;;;6.53;;
962;SDS011;469;48.770;9.176;2023-02-08T03:13:51;16.92;;;6.88;;
962;SDS011;469;48.770;9.176;2023-02-08T03:16:30;15.68;;;6.57;;
962;SDS011;469;48.770;9.176;2023-02-08T03:19:09;16.27;;;6.35;;
962;SDS011;469;48.770;9.176;2023-02-08T03:21:46;14.38;;;6.95;;
962;SDS011;469;48.770;9.176;2023-02-08T03:24:22;18.00;;;7.03;;
962;SDS011;469;48.770;9.176;2023-02-08T03:26:54;18.83;;;6.88;;
962;SDS011;469;48.770;9.176;2023-02-08T03:29:27;21.67;;;8.10;;
962;SDS011;469;48.770;9.176;2023-02-08T03:32:05;17.00;;;7.70;;
962;SDS011;469;48.770;9.176;2023-02-08T03:34:40;14.52;;;7.30;;
962;SDS011;469;48.770;9.176;2023-02-08T03:37:12;14.43;;;7.32;;
962;SDS011;469;48.770;9.176;2023-02-08T03:39:43;19.05;;;7.50;;
962;SDS011;469;48.770;9.176;2023-02-08T03:42:16;18.15;;;6.88;;
962;SDS011;469;48.770;9.176;2023-02-08T03:44:47;15.80;;;6.85;;
962;SDS011;469;48.770;9.176;2023-02-08T03:47:18;15.18;;;6.70;;
962;SDS011;469;48.770;9.176;2023-02-08T03:49:49;17.52;;;7.25;;
962;SDS011;469;48.770;9.176;2023-02-08T03:52:19;19.13;;;6.97;;
962;SDS011;469;48.770;9.176;2023-02-08T03:54:49;13.70;;;7.10;;
962;SDS011;469;48.770;9.176;2023-02-08T03:57:20;17.48;;;7.13;;
962;SDS011;469;48.770;9.176;2023-02-08T03:59:51;23.38;;;7.30;;
962;SDS011;469;48.770;9.176;2023-02-08T04:02:22;20.17;;;6.93;;
962;SDS011;469;48.770;9.176;2023-02-08T04:04:54;17.08;;;7.15;;
962;SDS011;469;48.770;9.176;2023-02-08T04:07:22;18.60;;;7.00;;
962;SDS011;469;48.770;9.176;2023-02-08T04:09:49;17.17;;;6.93;;
962;SDS011;469;48.770;9.176;2023-02-08T04:12:16;16.48;;;6.82;;
962;SDS011;469;48.770;9.176;2023-02-08T04:14:43;16.70;;;7.30;;
962;SDS011;469;48.770;9.176;2023-02-08T04:17:09;16.50;;;7.45;;
962;SDS011;469;48.770;9.176;2023-02-08T04:19:36;17.23;;;6.47;;
962;SDS011;469;48.770;9.176;2023-02-08T04:22:04;17.40;;;7.63;;
962;SDS011;469;48.770;9.176;2023-02-08T04:24:31;16.65;;;6.95;;
962;SDS011;469;48.770;9.176;2023-02-08T04:26:58;15.93;;;6.80;;
962;SDS011;469;48.770;9.176;2023-02-08T04:29:24;22.42;;;7.85;;
962;SDS011;469;48.770;9.176;2023-02-08T04:31:51;19.08;;;6.97;;
962;SDS011;469;48.770;9.176;2023-02-08T04:34:18;18.92;;;7.10;;
962;SDS011;469;48.770;9.176;2023-02-08T04:36:44;20.08;;;7.43;;
962;SDS011;469;48.770;9.176;2023-02-08T04:39:13;15.57;;;7.13;;
962;SDS011;469;48.770;9.176;2023-02-08T04:41:39;20.15;;;7.93;;
962;SDS011;469;48.770;9.176;2023-02-08T04:44:06;16.83;;;7.32;;
962;SDS011;469;48.770;9.176;2023-02-08T04:46:33;17.58;;;7.53;;
962;SDS011;469;48.770;9.176;2023-02-08T04:48:59;19.50;;;6.93;;
962;SDS011;469;48.770;9.176;2023-02-08T04:51:26;17.58;;;7.45;;
962;SDS011;469;48.770;9.176;2023-02-08T04:53:53;25.30;;;6.93;;
962;SDS011;469;48.770;9.176;2023-02-08T04:56:23;20.65;;;7.57;;
962;SDS011;469;48.770;9.176;2023-02-08T04:58:49;19.40;;;7.53;;
962;SDS011;469;48.770;9.176;2023-02-08T05:01:16;21.70;;;7.63;;
962;SDS011;469;48.770;9.176;2023-02-08T05:03:43;18.25;;;8.15;;
962;SDS011;469;48.770;9.176;2023-02-08T05:06:09;18.25;;;7.47;;
962;SDS011;469;48.770;9.176;2023-02-08T05:08:36;18.27;;;7.65;;
962;SDS011;469;48.770;9.176;2023-02-08T05:11:03;17.73;;;7.85;;
962;SDS011;469;48.770;9.176;2023-02-08T05:13:31;21.25;;;7.65;;
962;SDS011;469;48.770;9.176;2023-02-08T05:15:58;17.08;;;7.43;;
962;SDS011;469;48.770;9.176;2023-02-08T05:18:25;19.42;;;8.27;;
962;SDS011;469;48.770;9.176;2023-02-08T05:20:54;18.80;;;8.20;;
962;SDS011;469;48.770;9.176;2023-02-08T05:23:22;15.38;;;6.43;;
962;SDS011;469;48.770;9.176;2023-02-08T05:25:49;18.02;;;7.63;;
962;SDS011;469;48.770;9.176;2023-02-08T05:28:16;19.73;;;7.45;;
962;SDS011;469;48.770;9.176;2023-02-08T05:30:45;18.10;;;8.30;;
962;SDS011;469;48.770;9.176;2023-02-08T05:33:12;16.42;;;7.78;;
962;SDS011;469;48.770;9.176;2023-02-08T05:35:39;20.10;;;7.68;;
962;SDS011;469;48.770;9.176;2023-02-08T05:38:06;19.05;;;7.65;;
962;SDS011;469;48.770;9.176;2023-02-08T05:40:33;23.02;;;7.13;;
962;SDS011;469;48.770;9.176;2023-02-08T05:43:00;23.90;;;8.10;;
962;SDS011;469;48.770;9.176;2023-02-08T05:45:27;17.08;;;7.03;;
962;SDS011;469;48.770;9.176;2023-02-08T05:47:54;24.63;;;8.52;;
962;SDS011;469;48.770;9.176;2023-02-08T05:50:23;17.80;;;8.50;;
962;SDS011;469;48.770;9.176;2023-02-08T05:52:51;20.55;;;7.72;;
962;SDS011;469;48.770;9.176;2023-02-08T05:55:18;22.10;;;8.25;;
962;SDS011;469;48.770;9.176;2023-02-08T05:57:50;23.10;;;7.70;;
962;SDS011;469;48.770;9.176;2023-02-08T06:00:16;23.92;;;9.13;;
962;SDS011;469;48.770;9.176;2023-02-08T06:02:44;18.40;;;7.55;;
962;SDS011;469;48.770;9.176;2023-02-08T06:05:12;24.88;;;8.32;;
962;SDS011;469;48.770;9.176;2023-02-08T06:07:38;16.60;;;6.90;;
962;SDS011;469;48.770;9.176;2023-02-08T06:10:05;25.08;;;8.45;;
962;SDS011;469;48.770;9.176;2023-02-08T06:12:33;21.27;;;8.55;;
962;SDS011;469;48.770;9.176;2023-02-08T06:15:00;24.60;;;8.57;;
962;SDS011;469;48.770;9.176;2023-02-08T06:17:27;19.38;;;8.02;;
962;SDS011;469;48.770;9.176;2023-02-08T06:19:54;18.67;;;7.65;;
962;SDS011;469;48.770;9.176;2023-02-08T06:22:27;26.65;;;8.85;;
962;SDS011;469;48.770;9.176;2023-02-08T06:24:54;19.25;;;7.15;;
962;SDS011;469;48.770;9.176;2023-02-08T06:27:22;27.45;;;8.73;;
962;SDS011;469;48.770;9.176;2023-02-08T06:29:49;21.75;;;7.65;;
962;SDS011;469;48.770;9.176;2023-02-08T06:32:19;18.50;;;7.40;;
962;SDS011;469;48.770;9.176;2023-02-08T06:35:08;15.50;;;7.00;;
962;SDS011;469;48.770;9.176;2023-02-08T06:37:43;20.65;;;8.05;;
962;SDS011;469;48.770;9.176;2023-02-08T06:40:10;21.33;;;8.45;;
962;SDS011;469;48.770;9.176;2023-02-08T06:42:40;22.35;;;8.05;;
962;SDS011;469;48.770;9.176;2023-02-08T06:45:09;21.25;;;8.95;;
962;SDS011;469;48.770;9.176;2023-02-08T06:47:36;30.58;;;9.05;;
962;SDS011;469;48.770;9.176;2023-02-08T06:50:03;19.23;;;8.90;;
962;SDS011;469;48.770;9.176;2023-02-08T06:52:31;21.20;;;8.68;;
962;SDS011;469;48.770;9.176;2023-02-08T06:54:59;23.30;;;8.70;;
962;SDS011;469;48.770;9.176;2023-02-08T06:57:26;19.95;;;8.32;;
962;SDS011;469;48.770;9.176;2023-02-08T06:59:55;23.75;;;8.98;;
962;SDS011;469;48.770;9.176;2023-02-08T07:02:32;25.15;;;8.82;;
962;SDS011;469;48.770;9.176;2023-02-08T07:04:59;22.63;;;8.35;;
962;SDS011;469;48.770;9.176;2023-02-08T07:07:30;25.80;;;8.32;;
962;SDS011;469;48.770;9.176;2023-02-08T07:10:02;21.75;;;8.38;;
962;SDS011;469;48.770;9.176;2023-02-08T07:12:31;17.40;;;6.90;;
962;SDS011;469;48.770;9.176;2023-02-08T07:15:01;20.63;;;8.07;;
962;SDS011;469;48.770;9.176;2023-02-08T07:17:28;20.30;;;7.93;;
962;SDS011;469;48.770;9.176;2023-02-08T07:19:55;21.92;;;8.07;;
962;SDS011;469;48.770;9.176;2023-02-08T07:22:24;18.83;;;8.18;;
962;SDS011;469;48.770;9.176;2023-02-08T07:24:51;18.10;;;8.60;;
962;SDS011;469;48.770;9.176;2023-02-08T07:27:23;24.73;;;8.68;;
962;SDS011;469;48.770;9.176;2023-02-08T07:29:50;21.63;;;8.00;;
962;SDS011;469;48.770;9.176;2023-02-08T07:32:16;22.30;;;9.20;;
962;SDS011;469;48.770;9.176;2023-02-08T07:34:45;19.35;;;8.18;;
962;SDS011;469;48.770;9.176;2023-02-08T07:37:12;24.33;;;9.38;;
962;SDS011;469;48.770;9.176;2023-02-08T07:39:41;21.20;;;8.73;;
962;SDS011;469;48.770;9.176;2023-02-08T07:42:16;24.25;;;10.00;;
962;SDS011;469;48.770;9.176;2023-02-08T07:45:06;22.15;;;9.15;;
962;SDS011;469;48.770;9.176;2023-02-08T07:47:36;22.15;;;8.68;;
962;SDS011;469;48.770;9.176;2023-02-08T07:50:03;26.67;;;10.05;;
962;SDS011;469;48.770;9.176;2023-02-08T07:52:35;28.92;;;9.02;;
962;SDS011;469;48.770;9.176;2023-02-08T07:55:02;21.10;;;8.43;;
962;SDS011;469;48.770;9.176;2023-02-08T07:57:35;24.85;;;8.48;;
962;SDS011;469;48.770;9.176;2023-02-08T08:00:02;28.17;;;9.35;;
962;SDS011;469;48.770;9.176;2023-02-08T08:02:29;23.45;;;9.85;;
962;SDS011;469;48.770;9.176;2023-02-08T08:04:59;33.65;;;9.82;;
962;SDS011;469;48.770;9.176;2023-02-08T08:07:29;21.60;;;9.23;;
962;SDS011;469;48.770;9.176;2023-02-08T08:09:56;22.65;;;8.88;;
962;SDS011;469;48.770;9.176;2023-02-08T08:12:25;24.88;;;10.15;;
962;SDS011;469;48.770;9.176;2023-02-08T08:14:55;25.13;;;9.48;;
962;SDS011;469;48.770;9.176;2023-02-08T08:17:31;24.17;;;9.10;;
962;SDS011;469;48.770;9.176;2023-02-08T08:20:06;21.15;;;8.60;;
962;SDS011;469;48.770;9.176;2023-02-08T08:22:45;22.13;;;9.80;;
962;SDS011;469;48.770;9.176;2023-02-08T08:25:15;26.50;;;8.65;;
962;SDS011;469;48.770;9.176;2023-02-08T08:27:49;18.50;;;7.45;;
962;SDS011;469;48.770;9.176;2023-02-08T08:32:49;21.90;;;8.57;;
962;SDS011;469;48.770;9.176;2023-02-08T08:35:33;22.38;;;8.25;;
962;SDS011;469;48.770;9.176;2023-02-08T08:38:14;21.30;;;8.43;;
962;SDS011;469;48.770;9.176;2023-02-08T08:40:41;24.35;;;8.57;;
962;SDS011;469;48.770;9.176;2023-02-08T08:43:14;24.50;;;9.05;;
962;SDS011;469;48.770;9.176;2023-02-08T08:45:46;23.88;;;9.32;;
962;SDS011;469;48.770;9.176;2023-02-08T08:48:19;24.35;;;8.32;;
962;SDS011;469;48.770;9.176;2023-02-08T08:50:48;19.80;;;8.80;;
962;SDS011;469;48.770;9.176;2023-02-08T08:53:15;22.60;;;8.43;;
962;SDS011;469;48.770;9.176;2023-02-08T08:55:48;18.52;;;8.25;;
962;SDS011;469;48.770;9.176;2023-02-08T08:58:14;25.02;;;8.55;;
962;SDS011;469;48.770;9.176;2023-02-08T09:00:41;26.25;;;9.30;;
962;SDS011;469;48.770;9.176;2023-02-08T09:03:09;21.45;;;8.35;;
962;SDS011;469;48.770;9.176;2023-02-08T09:05:39;24.73;;;8.93;;
962;SDS011;469;48.770;9.176;2023-02-08T09:10:53;26.98;;;8.52;;
962;SDS011;469;48.770;9.176;2023-02-08T09:13:23;21.55;;;8.77;;
962;SDS011;469;48.770;9.176;2023-02-08T09:15:50;27.05;;;11.02;;
962;SDS011;469;48.770;9.176;2023-02-08T09:18:20;31.63;;;12.70;;
962;SDS011;469;48.770;9.176;2023-02-08T09:20:55;26.35;;;9.85;;
962;SDS011;469;48.770;9.176;2023-02-08T09:23:22;23.85;;;9.52;;
962;SDS011;469;48.770;9.176;2023-02-08T09:25:51;20.02;;;8.48;;
962;SDS011;469;48.770;9.176;2023-02-08T09:28:18;21.95;;;8.75;;
962;SDS011;469;48.770;9.176;2023-02-08T09:30:48;22.83;;;9.30;;
962;SDS011;469;48.770;9.176;2023-02-08T09:33:23;27.90;;;9.88;;
962;SDS011;469;48.770;9.176;2023-02-08T09:35:55;18.50;;;8.13;;
962;SDS011;469;48.770;9.176;2023-02-08T09:38:22;21.63;;;9.90;;
962;SDS011;469;48.770;9.176;2023-02-08T09:40:56;19.80;;;8.43;;
962;SDS011;469;48.770;9.176;2023-02-08T09:43:36;19.23;;;8.45;;
962;SDS011;469;48.770;9.176;2023-02-08T09:46:14;20.00;;;8.27;;
962;SDS011;469;48.770;9.176;2023-02-08T09:48:47;24.65;;;9.93;;
962;SDS011;469;48.770;9.176;2023-02-08T09:51:18;20.65;;;8.88;;
962;SDS011;469;48.770;9.176;2023-02-08T09:53:52;23.90;;;9.02;;
962;SDS011;469;48.770;9.176;2023-02-08T09:56:25;22.10;;;9.63;;
962;SDS011;469;48.770;9.176;2023-02-08T09:58:55;23.95;;;10.88;;
962;SDS011;469;48.770;9.176;2023-02-08T10:01:24;22.77;;;10.57;;
962;SDS011;469;48.770;9.176;2023-02-08T10:03:54;23.45;;;9.13;;
962;SDS011;469;48.770;9.176;2023-02-08T10:06:24;21.38;;;7.93;;
962;SDS011;469;48.770;9.176;2023-02-08T10:08:51;21.48;;;9.30;;
962;SDS011;469;48.770;9.176;2023-02-08T10:11:25;22.02;;;8.65;;
962;SDS011;469;48.770;9.176;2023-02-08T10:14:14;31.83;;;9.30;;
962;SDS011;469;48.770;9.176;2023-02-08T10:17:01;21.67;;;8.80;;
962;SDS011;469;48.770;9.176;2023-02-08T10:19:44;24.35;;;8.88;;
962;SDS011;469;48.770;9.176;2023-02-08T10:22:21;22.48;;;9.25;;
962;SDS011;469;48.770;9.176;2023-02-08T10:25:00;19.65;;;7.93;;
962;SDS011;469;48.770;9.176;2023-02-08T10:27:49;22.50;;;8.23;;
962;SDS011;469;48.770;9.176;2023-02-08T10:30:28;28.55;;;9.25;;
962;SDS011;469;48.770;9.176;2023-02-08T10:33:05;22.40;;;8.90;;
962;SDS011;469;48.770;9.176;2023-02-08T10:35:40;28.25;;;8.93;;
962;SDS011;469;48.770;9.176;2023-02-08T10:38:22;24.52;;;9.07;;
962;SDS011;469;48.770;9.176;2023-02-08T10:40:50;24.88;;;9.32;;
962;SDS011;469;48.770;9.176;2023-02-08T10:43:22;26.63;;;9.10;;
962;SDS011;469;48.770;9.176;2023-02-08T10:45:57;29.60;;;9.23;;
962;SDS011;469;48.770;9.176;2023-02-08T10:48:32;26.67;;;8.88;;
962;SDS011;469;48.770;9.176;2023-02-08T10:51:05;19.90;;;8.10;;
962;SDS011;469;48.770;9.176;2023-02-08T10:53:34;21.15;;;7.63;;
962;SDS011;469;48.770;9.176;2023-02-08T10:56:01;24.50;;;9.27;;
962;SDS011;469;48.770;9.176;2023-02-08T10:58:29;20.08;;;8.75;;
962;SDS011;469;48.770;9.176;2023-02-08T11:00:56;20.88;;;8.55;;
962;SDS011;469;48.770;9.176;2023-02-08T11:03:24;21.98;;;8.65;;
962;SDS011;469;48.770;9.176;2023-02-08T11:05:52;19.73;;;8.60;;
962;SDS011;469;48.770;9.176;2023-02-08T11:08:21;16.92;;;8.25;;
962;SDS011;469;48.770;9.176;2023-02-08T11:10:56;21.98;;;8.65;;
962;SDS011;469;48.770;9.176;2023-02-08T11:13:25;16.85;;;7.65;;
962;SDS011;469;48.770;9.176;2023-02-08T11:15:58;25.02;;;9.30;;
962;SDS011;469;48.770;9.176;2023-02-08T11:18:26;18.25;;;7.80;;
962;SDS011;469;48.770;9.176;2023-02-08T11:20:56;20.98;;;7.70;;
962;SDS011;469;48.770;9.176;2023-02-08T11:23:27;20.27;;;7.53;;
962;SDS011;469;48.770;9.176;2023-02-08T11:26:11;18.08;;;7.50;;
962;SDS011;469;48.770;9.176;2023-02-08T11:28:42;20.42;;;8.18;;
962;SDS011;469;48.770;9.176;2023-02-08T11:31:15;24.13;;;7.57;;
962;SDS011;469;48.770;9.176;2023-02-08T11:33:56;21.25;;;8.00;;
962;SDS011;469;48.770;9.176;2023-02-08T11:36:24;21.05;;;7.40;;
962;SDS011;469;48.770;9.176;2023-02-08T11:38:52;17.13;;;7.20;;
962;SDS011;469;48.770;9.176;2023-02-08T11:41:19;24.92;;;8.50;;
962;SDS011;469;48.770;9.176;2023-02-08T11:43:53;18.15;;;6.88;;
962;SDS011;469;48.770;9.176;2023-02-08T11:46:25;16.08;;;7.05;;
962;SDS011;469;48.770;9.176;2023-02-08T11:48:53;21.50;;;8.07;;
962;SDS011;469;48.770;9.176;2023-02-08T11:51:25;20.73;;;8.23;;
962;SDS011;469;48.770;9.176;2023-02-08T11:53:56;23.20;;;8.48;;
962;SDS011;469;48.770;9.176;2023-02-08T11:56:25;19.92;;;7.30;;
962;SDS011;469;48.770;9.176;2023-02-08T11:58:57;23.23;;;7.93;;
962;SDS011;469;48.770;9.176;2023-02-08T12:01:27;19.55;;;7.88;;
962;SDS011;469;48.770;9.176;2023-02-08T12:03:55;21.92;;;7.80;;
962;SDS011;469;48.770;9.176;2023-02-08T12:10:05;19.00;;;7.57;;
962;SDS011;469;48.770;9.176;2023-02-08T12:12:46;14.88;;;6.20;;
962;SDS011;469;48.770;9.176;2023-02-08T12:15:23;13.68;;;6.30;;
962;SDS011;469;48.770;9.176;2023-02-08T12:18:00;15.18;;;6.80;;
962;SDS011;469;48.770;9.176;2023-02-08T12:20:39;17.60;;;6.80;;
962;SDS011;469;48.770;9.176;2023-02-08T12:26:18;14.68;;;6.55;;
962;SDS011;469;48.770;9.176;2023-02-08T12:29:01;13.65;;;6.05;;
962;SDS011;469;48.770;9.176;2023-02-08T12:31:48;16.70;;;6.13;;
962;SDS011;469;48.770;9.176;2023-02-08T12:34:26;15.48;;;6.05;;
962;SDS011;469;48.770;9.176;2023-02-08T12:37:11;17.92;;;6.05;;
962;SDS011;469;48.770;9.176;2023-02-08T12:40:08;17.15;;;5.72;;
962;SDS011;469;48.770;9.176;2023-02-08T12:43:05;13.93;;;5.55;;
962;SDS011;469;48.770;9.176;2023-02-08T12:48:50;16.58;;;5.88;;
962;SDS011;469;48.770;9.176;2023-02-08T12:51:25;15.43;;;5.78;;
962;SDS011;469;48.770;9.176;2023-02-08T12:54:02;15.23;;;6.55;;
962;SDS011;469;48.770;9.176;2023-02-08T12:56:34;10.68;;;4.75;;
962;SDS011;469;48.770;9.176;2023-02-08T12:59:04;13.70;;;5.30;;
962;SDS011;469;48.770;9.176;2023-02-08T13:01:33;15.20;;;5.78;;
962;SDS011;469;48.770;9.176;2023-02-08T13:04:03;15.10;;;5.63;;
962;SDS011;469;48.770;9.176;2023-02-08T13:06:32;19.33;;;6.80;;
962;SDS011;469;48.770;9.176;2023-02-08T13:09:02;11.43;;;5.50;;
962;SDS011;469;48.770;9.176;2023-02-08T13:11:32;18.00;;;6.35;;
962;SDS011;469;48.770;9.176;2023-02-08T13:14:01;15.40;;;6.10;;
962;SDS011;469;48.770;9.176;2023-02-08T13:16:31;15.82;;;5.63;;
962;SDS011;469;48.770;9.176;2023-02-08T13:19:05;16.08;;;5.70;;
962;SDS011;469;48.770;9.176;2023-02-08T13:21:33;16.90;;;5.45;;
962;SDS011;469;48.770;9.176;2023-02-08T13:24:05;17.42;;;5.80;;
962;SDS011;469;48.770;9.176;2023-02-08T13:26:36;19.60;;;6.53;;
962;SDS011;469;48.770;9.176;2023-02-08T13:29:04;13.85;;;5.63;;
962;SDS011;469;48.770;9.176;2023-02-08T13:31:33;12.40;;;5.53;;
962;SDS011;469;48.770;9.176;2023-02-08T13:34:04;11.60;;;4.82;;
962;SDS011;469;48.770;9.176;2023-02-08T13:36:33;16.00;;;4.93;;
962;SDS011;469;48.770;9.176;2023-02-08T13:39:02;16.23;;;5.95;;
962;SDS011;469;48.770;9.176;2023-02-08T13:41:30;22.73;;;6.07;;
962;SDS011;469;48.770;9.176;2023-02-08T13:43:58;13.98;;;5.13;;
962;SDS011;469;48.770;9.176;2023-02-08T13:46:27;11.48;;;5.28;;
962;SDS011;469;48.770;9.176;2023-02-08T13:48:56;12.07;;;5.60;;
962;SDS011;469;48.770;9.176;2023-02-08T13:54:22;25.67;;;9.48;;
962;SDS011;469;48.770;9.176;2023-02-08T13:56:50;13.45;;;5.72;;
962;SDS011;469;48.770;9.176;2023-02-08T13:59:28;15.75;;;4.90;;
962;SDS011;469;48.770;9.176;2023-02-08T14:04:48;13.73;;;5.03;;
962;SDS011;469;48.770;9.176;2023-02-08T14:07:21;11.00;;;4.75;;
962;SDS011;469;48.770;9.176;2023-02-08T14:09:59;10.93;;;4.85;;
962;SDS011;469;48.770;9.176;2023-02-08T14:12:30;14.55;;;5.22;;
962;SDS011;469;48.770;9.176;2023-02-08T14:17:44;13.95;;;5.10;;
962;SDS011;469;48.770;9.176;2023-02-08T14:20:23;11.43;;;4.90;;
962;SDS011;469;48.770;9.176;2023-02-08T14:22:55;11.75;;;5.25;;
962;SDS011;469;48.770;9.176;2023-02-08T14:25:24;12.68;;;4.90;;
962;SDS011;469;48.770;9.176;2023-02-08T14:27:53;16.85;;;5.20;;
962;SDS011;469;48.770;9.176;2023-02-08T14:30:23;14.57;;;5.80;;
962;SDS011;469;48.770;9.176;2023-02-08T14:32:52;10.93;;;4.85;;
962;SDS011;469;48.770;9.176;2023-02-08T14:35:22;18.23;;;5.78;;
962;SDS011;469;48.770;9.176;2023-02-08T14:37:51;13.07;;;5.00;;
962;SDS011;469;48.770;9.176;2023-02-08T14:43:43;13.02;;;5.60;;
962;SDS011;469;48.770;9.176;2023-02-08T14:48:59;18.08;;;4.78;;
962;SDS011;469;48.770;9.176;2023-02-08T14:51:27;11.10;;;5.20;;
962;SDS011;469;48.770;9.176;2023-02-08T14:54:01;16.83;;;6.07;;
962;SDS011;469;48.770;9.176;2023-02-08T14:56:30;11.60;;;5.03;;
962;SDS011;469;48.770;9.176;2023-02-08T14:59:07;16.40;;;6.70;;
962;SDS011;469;48.770;9.176;2023-02-08T15:01:37;15.25;;;6.63;;
962;SDS011;469;48.770;9.176;2023-02-08T15:04:10;18.35;;;6.40;;
962;SDS011;469;48.770;9.176;2023-02-08T15:09:34;20.15;;;7.70;;
962;SDS011;469;48.770;9.176;2023-02-08T15:12:03;19.25;;;6.47;;
962;SDS011;469;48.770;9.176;2023-02-08T15:14:33;15.63;;;6.22;;
962;SDS011;469;48.770;9.176;2023-02-08T15:19:46;16.25;;;6.53;;
962;SDS011;469;48.770;9.176;2023-02-08T15:22:15;15.75;;;6.65;;
962;SDS011;469;48.770;9.176;2023-02-08T15:24:52;13.13;;;5.45;;
962;SDS011;469;48.770;9.176;2023-02-08T15:27:22;14.70;;;6.20;;
962;SDS011;469;48.770;9.176;2023-02-08T15:29:57;28.02;;;6.55;;
962;SDS011;469;48.770;9.176;2023-02-08T15:32:25;18.70;;;6.85;;
962;SDS011;469;48.770;9.176;2023-02-08T15:34:53;16.60;;;6.70;;
962;SDS011;469;48.770;9.176;2023-02-08T15:37:21;18.35;;;6.60;;
962;SDS011;469;48.770;9.176;2023-02-08T15:39:52;14.00;;;6.32;;
962;SDS011;469;48.770;9.176;2023-02-08T15:42:20;17.23;;;6.90;;
962;SDS011;469;48.770;9.176;2023-02-08T15:44:48;16.17;;;7.47;;
962;SDS011;469;48.770;9.176;2023-02-08T15:47:17;17.75;;;7.85;;
962;SDS011;469;48.770;9.176;2023-02-08T15:49:45;20.60;;;7.90;;
962;SDS011;469;48.770;9.176;2023-02-08T15:52:15;17.83;;;7.57;;
962;SDS011;469;48.770;9.176;2023-02-08T15:54:42;17.90;;;7.45;;
962;SDS011;469;48.770;9.176;2023-02-08T15:57:15;18.48;;;8.35;;
962;SDS011;469;48.770;9.176;2023-02-08T15:59:45;19.13;;;7.90;;
962;SDS011;469;48.770;9.176;2023-02-08T16:02:17;21.48;;;8.05;;
962;SDS011;469;48.770;9.176;2023-02-08T16:04:46;21.13;;;8.55;;
962;SDS011;469;48.770;9.176;2023-02-08T16:07:18;20.83;;;8.13;;
962;SDS011;469;48.770;9.176;2023-02-08T16:09:48;18.42;;;7.40;;
962;SDS011;469;48.770;9.176;2023-02-08T16:12:19;22.63;;;7.95;;
962;SDS011;469;48.770;9.176;2023-02-08T16:14:46;20.25;;;8.82;;
962;SDS011;469;48.770;9.176;2023-02-08T16:17:30;21.42;;;9.10;;
962;SDS011;469;48.770;9.176;2023-02-08T16:19:57;18.05;;;8.70;;
962;SDS011;469;48.770;9.176;2023-02-08T16:22:24;20.27;;;8.05;;
962;SDS011;469;48.770;9.176;2023-02-08T16:27:36;24.60;;;8.45;;
962;SDS011;469;48.770;9.176;2023-02-08T16:30:03;27.05;;;8.23;;
962;SDS011;469;48.770;9.176;2023-02-08T16:32:32;19.15;;;8.05;;
962;SDS011;469;48.770;9.176;2023-02-08T16:35:09;19.52;;;8.88;;